Time,TemperatureF,DewpointF,PressureIn,WindDirection,WindDirectionDegrees,WindSpeedMPH,WindSpeedGustMPH,Humidity,HourlyPrecipIn,Conditions,Clouds,dailyrainin,SoftwareType,DateUTC
2013-01-22 00:00:00,20.3,4.2,29.78,West,269,4.5,9.6,49,0.00,,CLR,0.00,VWS V13.00,2013-01-22 05:00:00,
2013-01-22 00:01:00,20.3,4.6,29.78,WSW,252,3.6,8.1,50,0.00,,CLR,0.00,VWS V13.00,2013-01-22 05:01:00,
2013-01-22 00:06:00,20.3,4.6,29.78,WNW,291,5.4,8.1,50,0.00,,CLR,0.00,VWS V13.00,2013-01-22 05:06:00,
2013-01-22 00:11:00,20.1,4.5,29.78,WNW,287,0.0,8.1,50,0.00,,CLR,0.00,VWS V13.00,2013-01-22 05:11:00,
2013-01-22 00:16:00,20.1,4.5,29.78,WNW,300,3.6,8.1,50,0.00,,CLR,0.00,VWS V13.00,2013-01-22 05:16:00,
2013-01-22 00:21:00,20.1,4.5,29.78,West,277,3.1,4.9,50,0.00,,CLR,0.00,VWS V13.00,2013-01-22 05:21:00,
2013-01-22 00:26:00,19.9,4.3,29.78,SW,222,0.0,4.9,50,0.00,,CLR,0.00,VWS V13.00,2013-01-22 05:26:00,
2013-01-22 00:31:00,19.9,4.3,29.78,WSW,248,2.7,5.8,50,0.00,,CLR,0.00,VWS V13.00,2013-01-22 05:31:00,
2013-01-22 00:36:00,19.8,4.6,29.78,SW,219,4.0,5.8,51,0.00,,CLR,0.00,VWS V13.00,2013-01-22 05:36:00,
2013-01-22 00:41:00,19.6,4.4,29.78,SSW,209,4.5,4.5,51,0.00,,CLR,0.00,VWS V13.00,2013-01-22 05:41:00,
2013-01-22 00:46:00,19.6,4.4,29.78,West,264,0.0,6.3,51,0.00,,CLR,0.00,VWS V13.00,2013-01-22 05:46:00,
2013-01-22 00:51:00,19.2,4.5,29.78,SW,214,5.4,8.3,52,0.00,,CLR,0.00,VWS V13.00,2013-01-22 05:51:00,
2013-01-22 00:56:00,19.4,5.1,29.78,West,266,4.0,8.3,53,0.00,,CLR,0.00,VWS V13.00,2013-01-22 05:56:00,
2013-01-22 01:01:00,19.2,4.9,29.78,WNW,283,4.9,8.1,53,0.00,,CLR,0.00,VWS V13.00,2013-01-22 06:01:00,
2013-01-22 01:06:00,19.2,4.9,29.78,WSW,258,3.6,8.1,53,0.00,,CLR,0.00,VWS V13.00,2013-01-22 06:06:00,
2013-01-22 01:11:00,19.0,4.7,29.78,SW,218,2.7,8.7,53,0.00,,CLR,0.00,VWS V13.00,2013-01-22 06:11:00,
2013-01-22 01:16:00,19.0,4.7,29.78,NNW,348,2.7,8.7,53,0.00,,CLR,0.00,VWS V13.00,2013-01-22 06:16:00,
2013-01-22 01:22:00,19.0,4.7,29.78,WSW,239,2.2,5.8,53,0.00,,CLR,0.00,VWS V13.00,2013-01-22 06:22:00,
2013-01-22 01:27:00,18.9,5.0,29.78,SW,231,2.7,5.8,54,0.00,,CLR,0.00,VWS V13.00,2013-01-22 06:27:00,
2013-01-22 01:32:00,18.7,4.8,29.78,WSW,256,2.7,8.1,54,0.00,,CLR,0.00,VWS V13.00,2013-01-22 06:32:00,
2013-01-22 01:37:00,18.5,4.6,29.78,SW,236,3.1,8.1,54,0.00,,CLR,0.00,VWS V13.00,2013-01-22 06:37:00,
2013-01-22 01:42:00,18.7,4.8,29.78,WNW,284,8.1,10.1,54,0.00,,CLR,0.00,VWS V13.00,2013-01-22 06:42:00,
2013-01-22 01:47:00,18.9,5.0,29.78,North,350,3.6,10.1,54,0.00,,CLR,0.00,VWS V13.00,2013-01-22 06:47:00,
2013-01-22 01:52:00,18.9,5.0,29.78,WNW,284,3.6,10.1,54,0.00,,CLR,0.00,VWS V13.00,2013-01-22 06:52:00,
2013-01-22 01:57:00,18.7,5.2,29.78,West,264,5.4,10.1,55,0.00,,CLR,0.00,VWS V13.00,2013-01-22 06:57:00,
2013-01-22 02:02:00,18.5,5.0,29.78,SW,221,4.0,5.8,55,0.00,,CLR,0.00,VWS V13.00,2013-01-22 07:02:00,
2013-01-22 02:07:00,18.5,5.0,29.78,WSW,240,4.5,7.6,55,0.00,,CLR,0.00,VWS V13.00,2013-01-22 07:07:00,
2013-01-22 02:12:00,18.5,5.0,29.78,WNW,284,6.3,8.3,55,0.00,,CLR,0.00,VWS V13.00,2013-01-22 07:12:00,
2013-01-22 02:17:00,18.5,5.0,29.78,SW,221,3.6,10.1,55,0.00,,CLR,0.00,VWS V13.00,2013-01-22 07:17:00,
2013-01-22 02:22:00,18.5,5.0,29.78,West,279,2.7,7.6,55,0.00,,CLR,0.00,VWS V13.00,2013-01-22 07:22:00,
2013-01-22 02:27:00,18.3,4.9,29.78,WNW,289,5.4,7.6,55,0.00,,CLR,0.00,VWS V13.00,2013-01-22 07:27:00,
2013-01-22 02:32:00,17.8,4.4,29.78,WNW,296,4.0,7.6,55,0.00,,CLR,0.00,VWS V13.00,2013-01-22 07:32:00,
2013-01-22 02:37:00,18.0,4.5,29.81,WNW,302,2.7,8.7,55,0.00,,CLR,0.00,VWS V13.00,2013-01-22 07:37:00,
2013-01-22 02:43:00,18.0,4.5,29.81,West,278,2.7,8.7,55,0.00,,CLR,0.00,VWS V13.00,2013-01-22 07:43:00,
2013-01-22 02:47:00,17.8,4.4,29.81,NW,312,0.0,8.7,55,0.00,,CLR,0.00,VWS V13.00,2013-01-22 07:47:00,
2013-01-22 02:53:00,17.8,4.4,29.81,WSW,242,3.6,8.7,55,0.00,,CLR,0.00,VWS V13.00,2013-01-22 07:53:00,
2013-01-22 02:58:00,17.8,4.8,29.81,WSW,254,8.1,10.5,56,0.00,,CLR,0.00,VWS V13.00,2013-01-22 07:58:00,
2013-01-22 03:03:00,17.8,5.1,29.81,NW,307,3.6,10.1,57,0.00,,CLR,0.00,VWS V13.00,2013-01-22 08:03:00,
2013-01-22 03:08:00,17.8,5.1,29.81,NW,319,2.7,10.1,57,0.00,,CLR,0.00,VWS V13.00,2013-01-22 08:08:00,
2013-01-22 03:13:00,17.6,5.7,29.81,NW,319,4.0,10.1,59,0.00,,CLR,0.00,VWS V13.00,2013-01-22 08:13:00,
2013-01-22 03:18:00,17.1,5.2,29.81,WSW,251,6.3,10.1,59,0.00,,CLR,0.00,VWS V13.00,2013-01-22 08:18:00,
2013-01-22 03:23:00,16.9,5.0,29.81,SW,230,5.4,8.7,59,0.00,,CLR,0.00,VWS V13.00,2013-01-22 08:23:00,
2013-01-22 03:28:00,16.9,5.4,29.81,WNW,293,2.2,8.7,60,0.00,,CLR,0.00,VWS V13.00,2013-01-22 08:28:00,
2013-01-22 03:33:00,16.9,5.4,29.81,SW,220,3.6,10.1,60,0.00,,CLR,0.00,VWS V13.00,2013-01-22 08:33:00,
2013-01-22 03:38:00,16.9,5.4,29.81,WSW,238,4.9,10.1,60,0.00,,CLR,0.00,VWS V13.00,2013-01-22 08:38:00,
2013-01-22 03:43:00,16.7,5.2,29.81,West,263,7.6,7.6,60,0.00,,CLR,0.00,VWS V13.00,2013-01-22 08:43:00,
2013-01-22 03:48:00,16.7,5.2,29.81,WNW,297,2.7,8.7,60,0.00,,CLR,0.00,VWS V13.00,2013-01-22 08:48:00,
2013-01-22 03:53:00,16.2,4.7,29.81,SSW,203,2.2,8.7,60,0.00,,CLR,0.00,VWS V13.00,2013-01-22 08:53:00,
2013-01-22 03:58:00,16.2,4.7,29.81,NNW,343,5.8,8.7,60,0.00,,CLR,0.00,VWS V13.00,2013-01-22 08:58:00,
2013-01-22 04:03:00,16.2,4.7,29.81,WSW,248,6.3,10.1,60,0.00,,CLR,0.00,VWS V13.00,2013-01-22 09:03:00,
2013-01-22 04:09:00,16.0,4.6,29.81,West,268,3.6,10.1,60,0.00,,CLR,0.00,VWS V13.00,2013-01-22 09:09:00,
2013-01-22 04:14:00,15.8,4.4,29.81,South,171,5.8,10.1,60,0.00,,CLR,0.00,VWS V13.00,2013-01-22 09:14:00,
2013-01-22 04:19:00,15.6,3.8,29.81,South,180,3.6,10.1,59,0.00,,CLR,0.00,VWS V13.00,2013-01-22 09:19:00,
2013-01-22 04:24:00,15.4,3.7,29.81,West,281,5.4,5.4,59,0.00,,CLR,0.00,VWS V13.00,2013-01-22 09:24:00,
2013-01-22 04:29:00,15.4,3.7,29.81,SW,235,4.9,5.8,59,0.00,,CLR,0.00,VWS V13.00,2013-01-22 09:29:00,
2013-01-22 04:34:00,15.3,3.2,29.84,NW,312,3.1,6.3,58,0.00,,CLR,0.00,VWS V13.00,2013-01-22 09:34:00,
2013-01-22 04:39:00,15.1,3.0,29.84,SW,225,4.0,10.1,58,0.00,,CLR,0.00,VWS V13.00,2013-01-22 09:39:00,
2013-01-22 04:44:00,15.1,3.0,29.84,SW,229,5.4,8.3,58,0.00,,CLR,0.00,VWS V13.00,2013-01-22 09:44:00,
2013-01-22 04:49:00,14.9,2.4,29.84,WSW,258,5.8,8.3,57,0.00,,CLR,0.00,VWS V13.00,2013-01-22 09:49:00,
2013-01-22 04:54:00,14.9,2.0,29.84,SSW,208,4.9,8.3,56,0.00,,CLR,0.00,VWS V13.00,2013-01-22 09:54:00,
2013-01-22 04:59:00,14.5,1.7,29.84,South,184,4.0,8.3,56,0.00,,CLR,0.00,VWS V13.00,2013-01-22 09:59:00,
2013-01-22 05:04:00,14.5,1.7,29.84,West,272,0.0,7.6,56,0.00,,CLR,0.00,VWS V13.00,2013-01-22 10:04:00,
2013-01-22 05:09:00,14.4,1.5,29.84,SW,218,0.0,7.6,56,0.00,,CLR,0.00,VWS V13.00,2013-01-22 10:09:00,
2013-01-22 05:14:00,14.2,1.4,29.84,SW,222,3.1,7.6,56,0.00,,CLR,0.00,VWS V13.00,2013-01-22 10:14:00,
2013-01-22 05:19:00,14.2,1.4,29.87,WNW,296,2.2,7.6,56,0.00,,CLR,0.00,VWS V13.00,2013-01-22 10:19:00,
2013-01-22 05:24:00,14.2,1.4,29.87,SW,233,5.8,10.1,56,0.00,,CLR,0.00,VWS V13.00,2013-01-22 10:24:00,
2013-01-22 05:29:00,14.4,1.2,29.87,SW,232,3.1,10.1,55,0.00,,CLR,0.00,VWS V13.00,2013-01-22 10:29:00,
2013-01-22 05:34:00,14.4,1.2,29.87,SW,216,2.7,10.1,55,0.00,,CLR,0.00,VWS V13.00,2013-01-22 10:34:00,
2013-01-22 05:39:00,14.4,1.2,29.87,WSW,238,3.1,10.1,55,0.00,,,0.00,VWS V13.00,2013-01-22 10:39:00,
2013-01-22 05:44:00,14.5,1.3,29.87,WNW,289,8.3,15.4,55,0.00,,,0.00,VWS V13.00,2013-01-22 10:44:00,
2013-01-22 05:49:00,14.5,1.3,29.87,NW,320,3.1,15.4,55,0.00,,,0.00,VWS V13.00,2013-01-22 10:49:00,
2013-01-22 05:55:00,14.4,1.2,29.87,SW,236,10.5,15.4,55,0.00,,BKN050,0.00,VWS V13.00,2013-01-22 10:55:00,
2013-01-22 06:00:00,14.4,1.2,29.87,SSW,204,3.1,15.4,55,0.00,,BKN050,0.00,VWS V13.00,2013-01-22 11:00:00,
2013-01-22 06:05:00,14.4,0.8,29.87,WSW,239,5.8,6.3,54,0.00,,BKN050,0.00,VWS V13.00,2013-01-22 11:05:00,
2013-01-22 06:10:00,14.2,0.6,29.87,WNW,293,5.8,14.5,54,0.00,,BKN050,0.00,VWS V13.00,2013-01-22 11:10:00,
2013-01-22 06:15:00,14.2,0.6,29.87,WSW,257,3.6,14.5,54,0.00,,BKN050,0.00,VWS V13.00,2013-01-22 11:15:00,
2013-01-22 06:20:00,13.8,0.6,29.87,SSE,163,3.1,14.5,55,0.00,,BKN050,0.00,VWS V13.00,2013-01-22 11:20:00,
2013-01-22 06:25:00,13.8,0.6,29.87,SW,231,5.4,6.3,55,0.00,,BKN050,0.00,VWS V13.00,2013-01-22 11:25:00,
2013-01-22 06:30:00,13.6,0.5,29.87,SSW,208,3.1,6.3,55,0.00,,BKN050,0.00,VWS V13.00,2013-01-22 11:30:00,
2013-01-22 06:35:00,13.6,0.5,29.90,NNE,28,2.7,6.3,55,0.00,,BKN050,0.00,VWS V13.00,2013-01-22 11:35:00,
2013-01-22 06:40:00,13.5,0.3,29.90,WSW,248,3.6,6.3,55,0.00,,FEW050,0.00,VWS V13.00,2013-01-22 11:40:00,
2013-01-22 06:45:00,13.3,0.2,29.90,West,259,4.9,12.3,55,0.00,,FEW050,0.00,VWS V13.00,2013-01-22 11:45:00,
2013-01-22 06:50:00,13.1,0.0,29.90,WNW,287,3.6,12.3,55,0.00,,FEW050,0.00,VWS V13.00,2013-01-22 11:50:00,
2013-01-22 06:55:00,12.9,-0.2,29.90,West,278,3.1,12.3,55,0.00,,FEW050,0.00,VWS V13.00,2013-01-22 11:55:00,
2013-01-22 07:00:00,12.7,-0.4,29.90,South,181,0.0,0.0,55,0.00,,FEW050,0.00,VWS V13.00,2013-01-22 12:00:00,
2013-01-22 07:05:00,12.6,-0.5,29.90,West,272,0.0,3.1,55,0.00,,FEW050,0.00,VWS V13.00,2013-01-22 12:05:00,
2013-01-22 07:10:00,12.6,-0.5,29.90,West,279,2.7,5.8,55,0.00,,FEW050,0.00,VWS V13.00,2013-01-22 12:10:00,
2013-01-22 07:15:00,12.4,-0.7,29.90,SSW,207,0.0,5.8,55,0.00,,FEW050,0.00,VWS V13.00,2013-01-22 12:15:00,
2013-01-22 07:20:00,12.2,-0.9,29.90,SSW,202,3.6,4.0,55,0.00,,FEW050,0.00,VWS V13.00,2013-01-22 12:20:00,
2013-01-22 07:25:00,12.4,-0.7,29.90,West,273,2.2,8.1,55,0.00,,FEW050,0.00,VWS V13.00,2013-01-22 12:25:00,
2013-01-22 07:31:00,12.2,-0.9,29.90,NNW,328,3.1,8.1,55,0.00,,FEW050,0.00,VWS V13.00,2013-01-22 12:31:00,
2013-01-22 07:36:00,12.4,-0.7,29.90,WSW,249,2.2,12.8,55,0.00,,CLR,0.00,VWS V13.00,2013-01-22 12:36:00,
2013-01-22 07:41:00,12.4,-0.7,29.90,West,259,5.4,5.4,55,0.00,,CLR,0.00,VWS V13.00,2013-01-22 12:41:00,
2013-01-22 07:46:00,12.4,-0.7,29.90,WSW,241,2.7,5.8,55,0.00,,CLR,0.00,VWS V13.00,2013-01-22 12:46:00,
2013-01-22 07:51:00,12.6,-0.5,29.93,SSW,210,3.1,10.1,55,0.00,,CLR,0.00,VWS V13.00,2013-01-22 12:51:00,
2013-01-22 07:56:00,13.1,0.0,29.93,SW,222,4.0,10.1,55,0.00,,CLR,0.00,VWS V13.00,2013-01-22 12:56:00,
2013-01-22 08:01:00,13.6,0.5,29.93,West,262,3.1,6.3,55,0.00,,CLR,0.00,VWS V13.00,2013-01-22 13:01:00,
2013-01-22 08:06:00,14.2,0.6,29.93,WSW,244,5.8,11.0,54,0.00,,CLR,0.00,VWS V13.00,2013-01-22 13:06:00,
2013-01-22 08:12:00,14.4,0.8,29.93,West,275,5.8,11.0,54,0.00,,CLR,0.00,VWS V13.00,2013-01-22 13:12:00,
2013-01-22 08:17:00,14.9,0.9,29.93,WNW,302,5.4,11.0,53,0.00,,CLR,0.00,VWS V13.00,2013-01-22 13:17:00,
2013-01-22 08:22:00,15.1,0.6,29.93,WNW,301,4.9,9.6,52,0.00,,CLR,0.00,VWS V13.00,2013-01-22 13:22:00,
2013-01-22 08:27:00,15.4,1.0,29.93,WSW,239,2.7,9.6,52,0.00,,CLR,0.00,VWS V13.00,2013-01-22 13:27:00,
2013-01-22 08:32:00,16.0,1.1,29.93,SW,216,2.7,10.5,51,0.00,,CLR,0.00,VWS V13.00,2013-01-22 13:32:00,
2013-01-22 08:37:00,16.2,0.8,29.93,NE,47,2.7,15.4,50,0.00,,CLR,0.00,VWS V13.00,2013-01-22 13:37:00,
2013-01-22 08:42:00,16.7,1.3,29.93,SSW,207,5.8,8.3,50,0.00,,CLR,0.00,VWS V13.00,2013-01-22 13:42:00,
2013-01-22 08:47:00,16.9,1.0,29.93,SW,232,5.8,10.5,49,0.00,,CLR,0.00,VWS V13.00,2013-01-22 13:47:00,
2013-01-22 08:52:00,17.4,1.5,29.93,SW,219,5.4,11.0,49,0.00,,CLR,0.00,VWS V13.00,2013-01-22 13:52:00,
2013-01-22 08:57:00,17.4,1.1,29.93,WSW,241,2.7,12.3,48,0.00,,CLR,0.00,VWS V13.00,2013-01-22 13:57:00,
2013-01-22 09:02:00,17.8,1.4,29.93,SSW,199,4.0,12.3,48,0.00,,CLR,0.00,VWS V13.00,2013-01-22 14:02:00,
2013-01-22 09:08:00,17.8,1.0,29.93,West,265,2.7,12.3,47,0.00,,CLR,0.00,VWS V13.00,2013-01-22 14:08:00,
2013-01-22 09:13:00,17.6,0.8,29.93,NW,311,4.0,12.3,47,0.00,,CLR,0.00,VWS V13.00,2013-01-22 14:13:00,
2013-01-22 09:18:00,18.0,0.7,29.96,WSW,237,7.2,12.3,46,0.00,,CLR,0.00,VWS V13.00,2013-01-22 14:18:00,
2013-01-22 09:23:00,18.5,1.2,29.96,SSW,198,4.9,11.0,46,0.00,,CLR,0.00,VWS V13.00,2013-01-22 14:23:00,
2013-01-22 09:28:00,18.3,1.0,29.96,WSW,253,15.4,15.4,46,0.00,,CLR,0.00,VWS V13.00,2013-01-22 14:28:00,
2013-01-22 09:33:00,19.0,1.2,29.96,SSW,197,4.0,15.4,45,0.00,,CLR,0.00,VWS V13.00,2013-01-22 14:33:00,
2013-01-22 09:38:00,19.2,1.4,29.96,NW,316,4.0,15.4,45,0.00,,,0.00,VWS V13.00,2013-01-22 14:38:00,
2013-01-22 09:43:00,19.2,1.4,29.96,WSW,238,8.7,10.1,45,0.00,,,0.00,VWS V13.00,2013-01-22 14:43:00,
2013-01-22 09:48:00,18.1,-0.1,29.96,NW,326,4.0,13.6,44,0.00,,,0.00,VWS V13.00,2013-01-22 14:48:00,
2013-01-22 09:53:00,18.3,0.1,29.96,NNE,27,3.1,13.6,44,0.00,,,0.00,VWS V13.00,2013-01-22 14:53:00,
2013-01-22 09:58:00,17.6,-0.6,29.96,West,276,5.8,14.5,44,0.00,,,0.00,VWS V13.00,2013-01-22 14:58:00,
2013-01-22 10:03:00,18.1,-0.1,29.96,ESE,109,2.7,10.1,44,0.00,,,0.00,VWS V13.00,2013-01-22 15:03:00,
2013-01-22 10:08:00,18.0,-0.3,29.96,SW,224,4.0,10.1,44,0.00,,,0.00,VWS V13.00,2013-01-22 15:08:00,
2013-01-22 10:13:00,18.1,-0.1,29.96,SSW,192,2.2,10.1,44,0.00,,,0.00,VWS V13.00,2013-01-22 15:13:00,
2013-01-22 10:18:00,16.9,-1.2,29.96,NNW,348,6.3,10.1,44,0.00,,,0.00,VWS V13.00,2013-01-22 15:18:00,
2013-01-22 10:23:00,17.1,-1.1,29.96,NW,312,7.6,10.1,44,0.00,,,0.00,VWS V13.00,2013-01-22 15:23:00,
2013-01-22 10:28:00,16.9,-1.2,29.96,WSW,256,8.7,10.5,44,0.00,,,0.00,VWS V13.00,2013-01-22 15:28:00,
2013-01-22 10:33:00,16.7,-1.4,29.96,ENE,66,0.0,10.5,44,0.00,,,0.00,VWS V13.00,2013-01-22 15:33:00,
2013-01-22 10:38:00,16.5,-1.6,29.96,WSW,248,0.0,13.2,44,0.00,,BKN034,0.00,VWS V13.00,2013-01-22 15:38:00,
2013-01-22 10:43:00,18.0,-0.3,29.96,SE,129,0.0,4.0,44,0.00,,BKN034,0.00,VWS V13.00,2013-01-22 15:43:00,
2013-01-22 10:48:00,18.5,0.2,29.96,SE,130,3.1,6.3,44,0.00,,BKN034,0.00,VWS V13.00,2013-01-22 15:48:00,
2013-01-22 10:53:00,18.3,-0.4,29.96,SSE,161,3.1,12.8,43,0.00,,BKN043,0.00,VWS V13.00,2013-01-22 15:53:00,
2013-01-22 10:58:00,19.0,0.2,29.96,East,84,0.0,12.8,43,0.00,,BKN043,0.00,VWS V13.00,2013-01-22 15:58:00,
2013-01-22 11:03:00,19.6,0.7,29.96,NNW,341,3.6,8.7,43,0.00,,BKN043,0.00,VWS V13.00,2013-01-22 16:03:00,
2013-01-22 11:08:00,19.6,0.2,29.96,NNW,328,6.3,12.3,42,0.00,,BKN043,0.00,VWS V13.00,2013-01-22 16:08:00,
2013-01-22 11:14:00,20.3,0.9,29.96,West,264,5.4,12.3,42,0.00,,BKN043,0.00,VWS V13.00,2013-01-22 16:14:00,
2013-01-22 11:19:00,20.5,0.5,29.96,NNW,330,2.7,12.3,41,0.00,,BKN043,0.00,VWS V13.00,2013-01-22 16:19:00,
2013-01-22 11:24:00,21.2,1.2,29.96,West,270,3.1,13.2,41,0.00,,BKN043,0.00,VWS V13.00,2013-01-22 16:24:00,
2013-01-22 11:29:00,21.2,0.7,29.96,North,350,4.0,13.2,40,0.00,,BKN043,0.00,VWS V13.00,2013-01-22 16:29:00,
2013-01-22 11:34:00,21.2,0.1,29.96,SW,226,8.3,17.0,39,0.00,,BKN043,0.00,VWS V13.00,2013-01-22 16:34:00,
2013-01-22 11:39:00,21.6,-0.1,29.96,WSW,240,5.4,17.0,38,0.00,,OVC055,0.00,VWS V13.00,2013-01-22 16:39:00,
2013-01-22 11:44:00,21.7,0.1,29.96,West,279,15.0,15.0,38,0.00,,OVC055,0.00,VWS V13.00,2013-01-22 16:44:00,
2013-01-22 11:49:00,21.6,-0.1,29.96,WNW,282,5.8,15.4,38,0.00,,OVC055,0.00,VWS V13.00,2013-01-22 16:49:00,
2013-01-22 11:54:00,22.1,0.4,29.96,NW,312,8.1,15.4,38,0.00,,OVC055,0.00,VWS V13.00,2013-01-22 16:54:00,
2013-01-22 11:59:00,21.7,0.1,29.96,North,353,7.6,15.4,38,0.00,,OVC055,0.00,VWS V13.00,2013-01-22 16:59:00,
2013-01-22 12:04:00,21.2,-0.4,29.96,SW,228,5.4,14.5,38,0.00,,OVC055,0.00,VWS V13.00,2013-01-22 17:04:00,
2013-01-22 12:09:00,21.6,-0.1,29.96,NE,56,5.4,14.5,38,0.00,,OVC055,0.00,VWS V13.00,2013-01-22 17:09:00,
2013-01-22 12:14:00,21.0,-0.6,29.96,WNW,290,8.1,14.5,38,0.00,,OVC055,0.00,VWS V13.00,2013-01-22 17:14:00,
2013-01-22 12:19:00,19.9,-1.6,29.96,SE,136,8.3,14.5,38,0.00,,OVC055,0.00,VWS V13.00,2013-01-22 17:19:00,
2013-01-22 12:24:00,19.9,-1.6,29.96,WNW,301,6.3,11.0,38,0.00,,OVC055,0.00,VWS V13.00,2013-01-22 17:24:00,
2013-01-22 12:29:00,20.5,-1.1,29.96,SSW,199,8.7,12.8,38,0.00,,OVC055,0.00,VWS V13.00,2013-01-22 17:29:00,
2013-01-22 12:34:00,20.7,-0.9,29.93,WSW,256,12.3,12.8,38,0.00,,OVC055,0.00,VWS V13.00,2013-01-22 17:34:00,
2013-01-22 12:39:00,20.7,-0.9,29.93,SSW,200,4.9,16.8,38,0.00,,BKN049,0.00,VWS V13.00,2013-01-22 17:39:00,
2013-01-22 12:44:00,21.0,-1.2,29.93,WNW,299,2.7,17.0,37,0.00,,BKN049,0.00,VWS V13.00,2013-01-22 17:44:00,
2013-01-22 12:49:00,21.2,-0.4,29.93,WNW,287,3.1,17.0,38,0.00,,BKN049,0.00,VWS V13.00,2013-01-22 17:49:00,
2013-01-22 12:54:00,20.8,-1.3,29.93,SSW,209,8.1,17.0,37,0.00,,BKN049,0.00,VWS V13.00,2013-01-22 17:54:00,
2013-01-22 12:59:00,20.8,-1.3,29.93,West,281,3.1,17.0,37,0.00,,BKN049,0.00,VWS V13.00,2013-01-22 17:59:00,
2013-01-22 13:04:00,20.7,-1.5,29.93,ESE,104,4.9,10.1,37,0.00,,BKN049,0.00,VWS V13.00,2013-01-22 18:04:00,
2013-01-22 13:09:00,20.1,-2.0,29.93,WSW,238,7.6,11.4,37,0.00,,BKN049,0.00,VWS V13.00,2013-01-22 18:09:00,
2013-01-22 13:14:00,19.6,-2.5,29.93,ESE,108,4.9,11.4,37,0.00,,BKN049,0.00,VWS V13.00,2013-01-22 18:14:00,
2013-01-22 13:20:00,19.6,-2.5,29.93,West,275,5.8,11.4,37,0.00,,BKN049,0.00,VWS V13.00,2013-01-22 18:20:00,
2013-01-22 13:25:00,18.9,-3.1,29.93,SW,226,5.4,13.2,37,0.00,,BKN049,0.00,VWS V13.00,2013-01-22 18:25:00,
2013-01-22 13:30:00,19.2,-2.8,29.93,SW,224,3.1,13.2,37,0.00,,BKN049,0.00,VWS V13.00,2013-01-22 18:30:00,
2013-01-22 13:35:00,19.4,-2.6,29.93,West,277,8.3,13.2,37,0.00,,BKN060,0.00,VWS V13.00,2013-01-22 18:35:00,
2013-01-22 13:40:00,19.9,-2.1,29.93,SW,221,5.4,13.2,37,0.00,,BKN060,0.00,VWS V13.00,2013-01-22 18:40:00,
2013-01-22 13:45:00,18.7,-3.3,29.93,WSW,249,2.7,13.2,37,0.00,,BKN060,0.00,VWS V13.00,2013-01-22 18:45:00,
2013-01-22 13:50:00,18.0,-3.9,29.93,West,274,4.0,13.2,37,0.00,,BKN060,0.00,VWS V13.00,2013-01-22 18:50:00,
2013-01-22 13:55:00,18.3,-3.6,29.93,SW,218,5.4,13.2,37,0.00,,BKN060,0.00,VWS V13.00,2013-01-22 18:55:00,
2013-01-22 14:00:00,18.5,-3.4,29.93,West,270,2.2,4.9,37,0.00,,BKN060,0.00,VWS V13.00,2013-01-22 19:00:00,
2013-01-22 14:05:00,18.3,-3.0,29.96,WSW,239,3.1,10.1,38,0.00,,BKN060,0.00,VWS V13.00,2013-01-22 19:05:00,
2013-01-22 14:10:00,19.2,-2.2,29.96,West,270,8.7,11.0,38,0.00,,BKN060,0.00,VWS V13.00,2013-01-22 19:10:00,
2013-01-22 14:15:00,18.5,-2.9,29.96,SSW,196,3.6,15.9,38,0.00,,BKN060,0.00,VWS V13.00,2013-01-22 19:15:00,
2013-01-22 14:20:00,18.7,-2.7,29.96,NW,322,8.3,8.3,38,0.00,,BKN060,0.00,VWS V13.00,2013-01-22 19:20:00,
2013-01-22 14:25:00,18.5,-2.9,29.96,WSW,251,6.3,8.3,38,0.00,,BKN060,0.00,VWS V13.00,2013-01-22 19:25:00,
2013-01-22 14:30:00,18.5,-2.9,29.96,WNW,291,2.2,8.7,38,0.00,,BKN060,0.00,VWS V13.00,2013-01-22 19:30:00,
2013-01-22 14:35:00,18.7,-2.7,29.96,SSW,203,10.1,10.1,38,0.00,,SCT055,0.00,VWS V13.00,2013-01-22 19:35:00,
2013-01-22 14:40:00,17.8,-4.1,29.96,West,259,8.1,9.2,37,0.00,,SCT055,0.00,VWS V13.00,2013-01-22 19:40:00,
2013-01-22 14:46:00,17.4,-3.8,29.96,West,263,7.2,12.3,38,0.00,,SCT055,0.00,VWS V13.00,2013-01-22 19:46:00,
2013-01-22 14:51:00,17.1,-4.2,29.96,WSW,237,2.7,12.3,38,0.00,,SCT055,0.00,VWS V13.00,2013-01-22 19:51:00,
2013-01-22 14:56:00,16.9,-4.3,29.96,WNW,302,8.3,13.2,38,0.00,,SCT055,0.00,VWS V13.00,2013-01-22 19:56:00,
2013-01-22 15:01:00,17.2,-4.0,29.96,SW,233,5.4,5.4,38,0.00,,SCT055,0.00,VWS V13.00,2013-01-22 20:01:00,
2013-01-22 15:06:00,17.6,-3.7,29.96,West,259,4.9,8.7,38,0.00,,SCT055,0.00,VWS V13.00,2013-01-22 20:06:00,
2013-01-22 15:11:00,17.4,-3.8,29.96,West,268,4.0,13.2,38,0.00,,SCT055,0.00,VWS V13.00,2013-01-22 20:11:00,
2013-01-22 15:16:00,16.9,-4.3,29.96,North,353,0.0,13.2,38,0.00,,SCT055,0.00,VWS V13.00,2013-01-22 20:16:00,
2013-01-22 15:21:00,16.5,-4.7,29.96,NW,326,0.0,4.0,38,0.00,,SCT055,0.00,VWS V13.00,2013-01-22 20:21:00,
2013-01-22 15:27:00,16.5,-4.7,29.96,WNW,302,5.8,8.7,38,0.00,,SCT055,0.00,VWS V13.00,2013-01-22 20:27:00,
2013-01-22 15:32:00,16.5,-5.2,29.96,SW,224,5.4,13.2,37,0.00,,SCT055,0.00,VWS V13.00,2013-01-22 20:32:00,
2013-01-22 15:37:00,16.7,-4.5,29.96,SSW,201,2.7,13.2,38,0.00,,CLR,0.00,VWS V13.00,2013-01-22 20:37:00,
2013-01-22 15:42:00,16.5,-4.7,29.96,WNW,296,7.2,11.0,38,0.00,,CLR,0.00,VWS V13.00,2013-01-22 20:42:00,
2013-01-22 15:47:00,16.0,-5.7,29.96,SSW,199,3.6,11.0,37,0.00,,CLR,0.00,VWS V13.00,2013-01-22 20:47:00,
2013-01-22 15:53:00,15.8,-5.3,29.96,WNW,291,2.7,11.0,38,0.00,,CLR,0.00,VWS V13.00,2013-01-22 20:53:00,
2013-01-22 15:58:00,15.8,-5.3,29.96,NNE,20,3.1,11.0,38,0.00,,CLR,0.00,VWS V13.00,2013-01-22 20:58:00,
2013-01-22 16:03:00,16.0,-5.1,29.99,WNW,286,9.6,9.6,38,0.00,,CLR,0.00,VWS V13.00,2013-01-22 21:03:00,
2013-01-22 16:08:00,15.8,-5.3,29.99,WSW,238,6.3,9.6,38,0.00,,CLR,0.00,VWS V13.00,2013-01-22 21:08:00,
2013-01-22 16:13:00,15.8,-5.3,29.99,North,0,4.0,10.5,38,0.00,,CLR,0.00,VWS V13.00,2013-01-22 21:13:00,
2013-01-22 16:18:00,15.6,-5.5,29.99,SW,218,5.4,13.2,38,0.00,,CLR,0.00,VWS V13.00,2013-01-22 21:18:00,
2013-01-22 16:23:00,15.4,-5.6,29.99,WSW,252,4.0,8.1,38,0.00,,CLR,0.00,VWS V13.00,2013-01-22 21:23:00,
2013-01-22 16:28:00,15.3,-5.8,29.99,WSW,249,3.1,10.5,38,0.00,,CLR,0.00,VWS V13.00,2013-01-22 21:28:00,
2013-01-22 16:32:00,15.3,-5.8,29.99,NW,317,9.6,10.5,38,0.00,,FEW041,0.00,VWS V13.00,2013-01-22 21:32:00,
2013-01-22 16:37:00,15.1,-5.9,29.99,West,274,5.8,12.3,38,0.00,,FEW041,0.00,VWS V13.00,2013-01-22 21:37:00,
2013-01-22 16:42:00,14.9,-6.1,29.99,North,353,3.6,6.7,38,0.00,,FEW041,0.00,VWS V13.00,2013-01-22 21:42:00,
2013-01-22 16:47:00,14.5,-6.4,29.99,WNW,301,6.3,6.7,38,0.00,,FEW041,0.00,VWS V13.00,2013-01-22 21:47:00,
2013-01-22 16:52:00,14.4,-6.6,29.99,SW,217,0.0,8.1,38,0.00,,FEW041,0.00,VWS V13.00,2013-01-22 21:52:00,
2013-01-22 16:57:00,14.2,-6.8,29.99,SW,223,3.1,8.7,38,0.00,,FEW041,0.00,VWS V13.00,2013-01-22 21:57:00,
2013-01-22 17:02:00,14.0,-6.4,29.99,SW,216,0.0,6.7,39,0.00,,FEW041,0.00,VWS V13.00,2013-01-22 22:02:00,
2013-01-22 17:07:00,13.8,-6.6,29.99,ESE,106,3.1,6.7,39,0.00,,FEW041,0.00,VWS V13.00,2013-01-22 22:07:00,
2013-01-22 17:12:00,13.8,-6.6,29.99,WSW,237,6.3,10.5,39,0.00,,FEW041,0.00,VWS V13.00,2013-01-22 22:12:00,
2013-01-22 17:18:00,13.6,-6.7,30.02,SW,216,0.0,11.9,39,0.00,,FEW041,0.00,VWS V13.00,2013-01-22 22:18:00,
2013-01-22 17:23:00,13.5,-6.9,30.02,SW,232,4.0,6.3,39,0.00,,FEW041,0.00,VWS V13.00,2013-01-22 22:23:00,
2013-01-22 17:28:00,13.3,-7.0,30.02,North,353,5.8,13.2,39,0.00,,FEW041,0.00,VWS V13.00,2013-01-22 22:28:00,
2013-01-22 17:33:00,13.3,-7.0,30.02,West,278,3.1,13.2,39,0.00,,FEW041,0.00,VWS V13.00,2013-01-22 22:33:00,
2013-01-22 17:38:00,12.9,-7.4,30.02,WSW,251,0.0,13.2,39,0.00,,SCT050,0.00,VWS V13.00,2013-01-22 22:38:00,
2013-01-22 17:43:00,12.9,-7.4,30.02,WSW,240,0.0,7.6,39,0.00,,SCT050,0.00,VWS V13.00,2013-01-22 22:43:00,
2013-01-22 17:48:00,12.9,-7.4,30.02,West,278,4.9,7.6,39,0.00,,SCT050,0.00,VWS V13.00,2013-01-22 22:48:00,
2013-01-22 17:53:00,12.9,-7.4,30.02,SE,143,0.0,8.1,39,0.00,,SCT050,0.00,VWS V13.00,2013-01-22 22:53:00,
2013-01-22 17:58:00,12.9,-7.4,30.02,West,277,3.1,12.3,39,0.00,,SCT050,0.00,VWS V13.00,2013-01-22 22:58:00,
2013-01-22 18:03:00,12.7,-7.5,30.02,SSW,197,4.9,5.4,39,0.00,,SCT050,0.00,VWS V13.00,2013-01-22 23:03:00,
2013-01-22 18:08:00,12.6,-7.7,30.02,West,269,2.7,14.5,39,0.00,,SCT050,0.00,VWS V13.00,2013-01-22 23:08:00,
2013-01-22 18:14:00,12.4,-7.8,30.02,SSE,149,3.1,14.5,39,0.00,,SCT050,0.00,VWS V13.00,2013-01-22 23:14:00,
2013-01-22 18:19:00,12.2,-8.0,30.02,SW,215,7.6,14.5,39,0.00,,SCT050,0.00,VWS V13.00,2013-01-22 23:19:00,
2013-01-22 18:24:00,12.0,-8.2,30.02,SE,139,2.2,6.3,39,0.00,,SCT050,0.00,VWS V13.00,2013-01-22 23:24:00,
2013-01-22 18:29:00,11.8,-8.3,30.02,WSW,250,2.7,11.0,39,0.00,,SCT050,0.00,VWS V13.00,2013-01-22 23:29:00,
2013-01-22 18:34:00,11.8,-8.3,30.05,SW,216,0.0,11.0,39,0.00,,SCT050,0.00,VWS V13.00,2013-01-22 23:34:00,
2013-01-22 18:39:00,11.8,-8.3,30.05,West,260,0.0,11.0,39,0.00,,CLR,0.00,VWS V13.00,2013-01-22 23:39:00,
2013-01-22 18:44:00,11.7,-8.5,30.05,SW,231,8.1,11.0,39,0.00,,CLR,0.00,VWS V13.00,2013-01-22 23:44:00,
2013-01-22 18:49:00,11.7,-8.5,30.05,WNW,297,3.1,11.0,39,0.00,,CLR,0.00,VWS V13.00,2013-01-22 23:49:00,
2013-01-22 18:54:00,11.5,-8.7,30.05,WSW,248,2.7,11.0,39,0.00,,CLR,0.00,VWS V13.00,2013-01-22 23:54:00,
2013-01-22 18:59:00,11.3,-8.8,30.05,North,353,0.0,11.0,39,0.00,,CLR,0.00,VWS V13.00,2013-01-22 23:59:00,
2013-01-22 19:04:00,11.3,-8.8,30.05,NE,53,2.2,5.4,39,0.00,,CLR,0.00,VWS V13.00,2013-01-23 00:04:00,
2013-01-22 19:09:00,11.1,-9.0,30.05,SW,222,3.1,10.5,39,0.00,,FEW047,0.00,VWS V13.00,2013-01-23 00:09:00,
2013-01-22 19:14:00,11.1,-9.0,30.05,NW,306,0.0,12.3,39,0.00,,FEW047,0.00,VWS V13.00,2013-01-23 00:14:00,
2013-01-22 19:19:00,10.9,-9.1,30.05,WSW,245,4.9,12.3,39,0.00,,FEW047,0.00,VWS V13.00,2013-01-23 00:19:00,
2013-01-22 19:24:00,10.9,-9.1,30.05,SW,221,2.7,5.4,39,0.00,,FEW047,0.00,VWS V13.00,2013-01-23 00:24:00,
2013-01-22 19:29:00,10.8,-9.3,30.05,SSW,197,3.6,7.6,39,0.00,,FEW047,0.00,VWS V13.00,2013-01-23 00:29:00,
2013-01-22 19:34:00,10.8,-9.3,30.05,SW,215,0.0,7.6,39,0.00,,FEW047,0.00,VWS V13.00,2013-01-23 00:34:00,
2013-01-22 19:39:00,10.6,-9.5,30.05,West,264,3.1,8.1,39,0.00,,FEW047,0.00,VWS V13.00,2013-01-23 00:39:00,
2013-01-22 19:44:00,10.6,-9.5,30.05,WSW,252,2.2,5.8,39,0.00,,FEW047,0.00,VWS V13.00,2013-01-23 00:44:00,
2013-01-22 19:49:00,10.6,-9.5,30.08,South,174,3.1,8.7,39,0.00,,FEW047,0.00,VWS V13.00,2013-01-23 00:49:00,
2013-01-22 19:54:00,10.4,-9.6,30.08,SSW,208,0.0,8.7,39,0.00,,FEW047,0.00,VWS V13.00,2013-01-23 00:54:00,
2013-01-22 19:59:00,10.4,-9.6,30.08,WSW,239,0.0,12.8,39,0.00,,FEW047,0.00,VWS V13.00,2013-01-23 00:59:00,
2013-01-22 20:05:00,10.4,-9.6,30.08,SW,227,3.1,5.8,39,0.00,,FEW047,0.00,VWS V13.00,2013-01-23 01:05:00,
2013-01-22 20:10:00,10.4,-9.6,30.08,WSW,248,0.0,9.6,39,0.00,,FEW047,0.00,VWS V13.00,2013-01-23 01:10:00,
2013-01-22 20:15:00,10.4,-9.6,30.08,WSW,250,0.0,9.6,39,0.00,,FEW047,0.00,VWS V13.00,2013-01-23 01:15:00,
2013-01-22 20:20:00,10.4,-9.6,30.08,NNE,28,3.6,9.6,39,0.00,,FEW047,0.00,VWS V13.00,2013-01-23 01:20:00,
2013-01-22 20:25:00,10.6,-9.5,30.08,ESE,103,0.0,8.7,39,0.00,,FEW047,0.00,VWS V13.00,2013-01-23 01:25:00,
2013-01-22 20:30:00,10.8,-9.3,30.08,West,273,0.0,9.6,39,0.00,,FEW047,0.00,VWS V13.00,2013-01-23 01:30:00,
2013-01-22 20:35:00,10.8,-9.3,30.08,NNW,327,0.0,9.6,39,0.00,,FEW047,0.00,VWS V13.00,2013-01-23 01:35:00,
2013-01-22 20:40:00,10.6,-9.5,30.08,NW,315,4.0,9.6,39,0.00,,FEW044,0.00,VWS V13.00,2013-01-23 01:40:00,
2013-01-22 20:45:00,10.6,-9.5,30.08,WSW,249,2.2,8.7,39,0.00,,FEW044,0.00,VWS V13.00,2013-01-23 01:45:00,
2013-01-22 20:50:00,10.4,-9.6,30.08,NNW,334,0.0,8.7,39,0.00,,FEW044,0.00,VWS V13.00,2013-01-23 01:50:00,
2013-01-22 20:55:00,10.2,-9.8,30.08,SE,127,0.0,8.7,39,0.00,,FEW044,0.00,VWS V13.00,2013-01-23 01:55:00,
2013-01-22 21:00:00,10.2,-9.8,30.08,North,357,2.7,3.6,39,0.00,,FEW044,0.00,VWS V13.00,2013-01-23 02:00:00,
2013-01-22 21:05:00,10.2,-9.8,30.08,NNE,28,2.7,7.2,39,0.00,,FEW044,0.00,VWS V13.00,2013-01-23 02:05:00,
2013-01-22 21:10:00,10.0,-10.0,30.08,WSW,258,6.3,7.2,39,0.00,,FEW044,0.00,VWS V13.00,2013-01-23 02:10:00,
2013-01-22 21:15:00,9.9,-10.1,30.08,West,274,3.1,7.2,39,0.00,,FEW044,0.00,VWS V13.00,2013-01-23 02:15:00,
2013-01-22 21:20:00,9.7,-10.3,30.08,WSW,241,5.4,5.4,39,0.00,,FEW044,0.00,VWS V13.00,2013-01-23 02:20:00,
2013-01-22 21:25:00,9.5,-10.5,30.08,North,353,0.0,5.4,39,0.00,,FEW044,0.00,VWS V13.00,2013-01-23 02:25:00,
2013-01-22 21:30:00,9.3,-10.6,30.08,South,183,0.0,5.4,39,0.00,,FEW044,0.00,VWS V13.00,2013-01-23 02:30:00,
2013-01-22 21:35:00,9.3,-10.6,30.08,WNW,282,5.4,7.6,39,0.00,,CLR,0.00,VWS V13.00,2013-01-23 02:35:00,
2013-01-22 21:40:00,9.3,-10.6,30.08,WSW,248,3.1,5.8,39,0.00,,CLR,0.00,VWS V13.00,2013-01-23 02:40:00,
2013-01-22 21:45:00,9.1,-10.8,30.08,NNW,327,0.0,5.8,39,0.00,,CLR,0.00,VWS V13.00,2013-01-23 02:45:00,
2013-01-22 21:50:00,9.0,-10.9,30.08,WSW,249,3.6,5.8,39,0.00,,CLR,0.00,VWS V13.00,2013-01-23 02:50:00,
2013-01-22 21:56:00,8.8,-11.1,30.08,WSW,237,0.0,5.8,39,0.00,,CLR,0.00,VWS V13.00,2013-01-23 02:56:00,
2013-01-22 22:01:00,8.8,-11.1,30.08,South,184,3.1,7.6,39,0.00,,CLR,0.00,VWS V13.00,2013-01-23 03:01:00,
2013-01-22 22:06:00,8.8,-11.1,30.11,NNW,327,2.7,7.6,39,0.00,,CLR,0.00,VWS V13.00,2013-01-23 03:06:00,
2013-01-22 22:11:00,8.6,-11.3,30.11,SW,231,0.0,7.6,39,0.00,,CLR,0.00,VWS V13.00,2013-01-23 03:11:00,
2013-01-22 22:16:00,8.6,-11.3,30.11,WNW,282,0.0,8.7,39,0.00,,CLR,0.00,VWS V13.00,2013-01-23 03:16:00,
2013-01-22 22:21:00,8.6,-11.3,30.11,SW,220,0.0,3.6,39,0.00,,CLR,0.00,VWS V13.00,2013-01-23 03:21:00,
2013-01-22 22:26:00,8.4,-11.4,30.11,West,261,0.0,3.6,39,0.00,,CLR,0.00,VWS V13.00,2013-01-23 03:26:00,
2013-01-22 22:31:00,8.1,-11.8,30.11,West,271,2.7,3.6,39,0.00,,CLR,0.00,VWS V13.00,2013-01-23 03:31:00,
2013-01-22 22:37:00,8.1,-11.8,30.11,SW,216,3.1,4.9,39,0.00,,CLR,0.00,VWS V13.00,2013-01-23 03:37:00,
2013-01-22 22:42:00,8.1,-11.8,30.11,WSW,248,0.0,4.9,39,0.00,,CLR,0.00,VWS V13.00,2013-01-23 03:42:00,
2013-01-22 22:47:00,8.1,-11.8,30.11,WSW,257,4.9,5.4,39,0.00,,CLR,0.00,VWS V13.00,2013-01-23 03:47:00,
2013-01-22 22:52:00,7.9,-11.9,30.11,WSW,255,3.6,5.8,39,0.00,,CLR,0.00,VWS V13.00,2013-01-23 03:52:00,
2013-01-22 22:57:00,7.9,-11.9,30.11,SW,225,2.7,5.8,39,0.00,,CLR,0.00,VWS V13.00,2013-01-23 03:57:00,
2013-01-22 23:02:00,7.9,-11.9,30.11,SW,219,2.2,3.6,39,0.00,,CLR,0.00,VWS V13.00,2013-01-23 04:02:00,
2013-01-22 23:07:00,7.9,-11.9,30.11,North,0,0.0,7.6,39,0.00,,CLR,0.00,VWS V13.00,2013-01-23 04:07:00,
2013-01-22 23:12:00,7.9,-11.9,30.11,West,262,2.2,7.6,39,0.00,,CLR,0.00,VWS V13.00,2013-01-23 04:12:00,
2013-01-22 23:17:00,7.9,-11.9,30.11,WNW,292,0.0,7.6,39,0.00,,CLR,0.00,VWS V13.00,2013-01-23 04:17:00,
2013-01-22 23:22:00,7.9,-11.9,30.11,WSW,247,3.1,10.1,39,0.00,,CLR,0.00,VWS V13.00,2013-01-23 04:22:00,
2013-01-22 23:27:00,7.7,-12.1,30.11,SSW,200,3.1,10.1,39,0.00,,CLR,0.00,VWS V13.00,2013-01-23 04:27:00,
2013-01-22 23:32:00,7.7,-12.1,30.11,West,260,2.7,11.0,39,0.00,,CLR,0.00,VWS V13.00,2013-01-23 04:32:00,
2013-01-22 23:37:00,7.5,-12.2,30.11,West,261,3.6,11.0,39,0.00,,CLR,0.00,VWS V13.00,2013-01-23 04:37:00,
2013-01-22 23:42:00,7.7,-12.1,30.11,NW,325,0.0,7.6,39,0.00,,CLR,0.00,VWS V13.00,2013-01-23 04:42:00,
2013-01-22 23:47:00,7.5,-12.2,30.11,SW,233,5.4,9.6,39,0.00,,CLR,0.00,VWS V13.00,2013-01-23 04:47:00,
2013-01-22 23:53:00,7.5,-12.2,30.11,SW,218,3.1,9.6,39,0.00,,CLR,0.00,VWS V13.00,2013-01-23 04:53:00,
2013-01-22 23:58:00,7.5,-12.2,30.11,SW,218,0.0,9.6,39,0.00,,CLR,0.00,VWS V13.00,2013-01-23 04:58:00,